createdAt,value
2022-11-18T00:01:30.716Z,75.68
2022-11-18T00:03:56.830Z,75.93
2022-11-18T00:06:22.926Z,75.74
2022-11-18T00:08:49.019Z,75.83
2022-11-18T00:11:15.130Z,76.02
2022-11-18T00:13:41.232Z,75.86
2022-11-18T00:16:07.346Z,75.92
2022-11-18T00:18:33.466Z,76.11
2022-11-18T00:20:59.567Z,76.04
2022-11-18T00:23:25.662Z,76.08
2022-11-18T00:25:52.060Z,76.08
2022-11-18T00:28:18.143Z,76.18
2022-11-18T00:30:44.233Z,76.24
2022-11-18T00:33:10.361Z,76.43
2022-11-18T00:35:36.454Z,76.25
2022-11-18T00:38:02.540Z,76.29
2022-11-18T00:40:28.656Z,76.31
2022-11-18T00:42:54.756Z,76.40
2022-11-18T00:45:20.847Z,76.41
2022-11-18T00:47:46.952Z,76.53
2022-11-18T00:50:13.054Z,76.49
2022-11-18T00:52:39.153Z,76.69
2022-11-18T00:55:05.255Z,76.69
2022-11-18T00:57:31.345Z,76.69
2022-11-18T00:59:57.455Z,76.64
2022-11-18T01:02:23.573Z,76.80
2022-11-18T01:04:49.684Z,76.69
2022-11-18T01:07:15.858Z,76.69
2022-11-18T01:09:42.050Z,76.77
2022-11-18T01:12:08.155Z,76.97
2022-11-18T01:14:34.245Z,76.84
2022-11-18T01:17:00.353Z,77.17
2022-11-18T01:19:26.444Z,76.76
2022-11-18T01:21:52.559Z,76.80
2022-11-18T01:24:18.671Z,76.93
2022-11-18T01:26:44.763Z,76.97
2022-11-18T01:29:10.860Z,76.98
2022-11-18T01:31:49.894Z,77.02
2022-11-18T01:34:23.092Z,76.92
2022-11-18T01:36:49.207Z,76.92
2022-11-18T01:39:15.471Z,76.93
2022-11-18T01:41:41.818Z,77.08
2022-11-18T01:44:07.923Z,76.99
2022-11-18T01:46:34.016Z,76.96
2022-11-18T01:49:00.113Z,76.79
2022-11-18T01:51:27.055Z,76.98
2022-11-18T01:53:53.161Z,76.92
2022-11-18T01:56:19.264Z,76.97
2022-11-18T01:58:45.376Z,76.83
2022-11-18T02:01:11.558Z,77.19
2022-11-18T02:03:37.787Z,77.04
2022-11-18T02:06:03.911Z,77.00
2022-11-18T02:08:30.022Z,77.01
2022-11-18T02:10:56.121Z,77.41
2022-11-18T02:13:22.245Z,77.23
2022-11-18T02:15:48.343Z,77.25
2022-11-18T02:18:14.462Z,77.42
2022-11-18T02:20:40.573Z,77.43
2022-11-18T02:23:06.673Z,77.47
2022-11-18T02:25:32.771Z,77.15
2022-11-18T02:27:58.885Z,77.50
2022-11-18T02:30:24.971Z,77.42
2022-11-18T02:32:51.063Z,77.42
2022-11-18T02:35:17.173Z,77.57
2022-11-18T02:37:43.288Z,77.75
2022-11-18T02:40:09.384Z,77.61
2022-11-18T02:42:35.492Z,77.62
2022-11-18T02:45:01.590Z,77.74
2022-11-18T02:47:27.684Z,78.04
2022-11-18T02:49:53.802Z,78.03
2022-11-18T02:52:19.903Z,78.20
2022-11-18T02:54:45.999Z,78.34
2022-11-18T02:57:12.118Z,78.35
2022-11-18T02:59:38.210Z,78.25
2022-11-18T03:02:04.306Z,78.21
2022-11-18T03:04:30.913Z,78.23
2022-11-18T03:06:57.058Z,78.14
2022-11-18T03:09:23.160Z,78.23
2022-11-18T03:11:49.260Z,78.31
2022-11-18T03:14:15.357Z,78.39
2022-11-18T03:16:41.468Z,78.34
2022-11-18T03:19:07.585Z,78.25
2022-11-18T03:21:33.679Z,78.20
2022-11-18T03:23:59.785Z,78.41
2022-11-18T03:26:25.910Z,78.52
2022-11-18T03:28:51.998Z,78.29
2022-11-18T03:31:18.101Z,78.55
2022-11-18T03:33:44.289Z,78.46
2022-11-18T03:36:10.387Z,78.62
2022-11-18T03:38:36.479Z,78.41
2022-11-18T03:41:02.595Z,78.60
2022-11-18T03:43:28.688Z,78.55
2022-11-18T03:45:54.780Z,78.50
2022-11-18T03:48:20.889Z,78.44
2022-11-18T03:50:46.975Z,78.38
2022-11-18T03:53:13.080Z,78.50
2022-11-18T03:55:39.217Z,78.42
2022-11-18T03:58:05.327Z,78.47
2022-11-18T04:00:31.419Z,78.57
2022-11-18T04:02:57.550Z,78.34
2022-11-18T04:05:23.662Z,78.35
2022-11-18T04:07:49.747Z,78.63
2022-11-18T04:10:15.874Z,78.81
2022-11-18T04:12:41.961Z,78.67
2022-11-18T04:15:08.064Z,78.58
2022-11-18T04:17:34.365Z,78.63
2022-11-18T04:20:00.464Z,78.60
2022-11-18T04:22:26.556Z,78.72
2022-11-18T04:24:52.662Z,78.69
2022-11-18T04:27:20.549Z,78.59
2022-11-18T04:29:46.649Z,78.67
2022-11-18T04:32:12.786Z,78.69
2022-11-18T04:34:38.885Z,78.60
2022-11-18T04:37:05.001Z,78.41
2022-11-18T04:39:31.605Z,78.70
2022-11-18T04:41:57.745Z,78.50
2022-11-18T04:44:23.882Z,78.46
2022-11-18T04:46:49.997Z,78.47
2022-11-18T04:49:16.490Z,78.46
2022-11-18T04:51:42.916Z,78.43
2022-11-18T04:54:09.072Z,78.56
2022-11-18T04:56:35.185Z,78.55
2022-11-18T04:59:01.294Z,78.36
2022-11-18T05:01:27.441Z,78.64
2022-11-18T05:03:53.601Z,78.55
2022-11-18T05:06:19.690Z,78.43
2022-11-18T05:08:45.792Z,78.64
2022-11-18T05:11:11.886Z,78.65
2022-11-18T05:13:37.977Z,78.88
2022-11-18T05:16:04.101Z,79.01
2022-11-18T05:18:30.202Z,79.22
2022-11-18T05:20:56.317Z,78.99
2022-11-18T05:23:22.425Z,79.36
2022-11-18T05:25:48.514Z,79.52
2022-11-18T05:28:14.622Z,79.60
2022-11-18T05:30:40.734Z,79.67
2022-11-18T05:33:06.951Z,79.59
2022-11-18T05:35:33.153Z,79.69
2022-11-18T05:37:59.280Z,79.69
2022-11-18T05:40:25.456Z,79.70
2022-11-18T05:42:51.552Z,79.79
2022-11-18T05:45:17.663Z,79.69
2022-11-18T05:47:43.747Z,79.75
2022-11-18T05:50:09.845Z,80.02
2022-11-18T05:52:35.958Z,79.93
2022-11-18T05:55:02.058Z,79.88
2022-11-18T05:57:28.179Z,79.86
2022-11-18T05:59:54.626Z,79.99
2022-11-18T06:02:20.759Z,79.90
2022-11-18T06:04:46.896Z,80.19
2022-11-18T06:07:13.073Z,79.93
2022-11-18T06:09:39.196Z,79.93
2022-11-18T06:12:05.297Z,79.96
2022-11-18T06:14:33.054Z,80.07
2022-11-18T06:16:59.201Z,80.08
2022-11-18T06:19:25.320Z,80.10
2022-11-18T06:21:51.914Z,79.99
2022-11-18T06:24:18.015Z,80.15
2022-11-18T06:26:44.099Z,80.16
2022-11-18T06:29:10.228Z,80.02
2022-11-18T06:31:36.335Z,80.09
2022-11-18T06:34:02.435Z,80.07
2022-11-18T06:36:28.564Z,80.08
2022-11-18T06:38:54.663Z,80.16
2022-11-18T06:41:20.772Z,79.80
2022-11-18T06:43:47.151Z,80.17
2022-11-18T06:46:13.276Z,79.87
2022-11-18T06:48:39.363Z,79.90
2022-11-18T06:51:05.482Z,79.78
2022-11-18T06:53:31.586Z,80.11
2022-11-18T06:55:57.681Z,79.73
2022-11-18T06:58:23.795Z,79.87
2022-11-18T07:00:49.943Z,79.93
2022-11-18T07:03:16.092Z,79.81
2022-11-18T07:05:42.222Z,79.59
2022-11-18T07:08:08.321Z,79.85
2022-11-18T07:10:34.413Z,79.80
2022-11-18T07:13:00.524Z,79.88
2022-11-18T07:15:26.621Z,79.60
2022-11-18T07:17:52.719Z,79.94
2022-11-18T07:20:18.847Z,79.86
2022-11-18T07:22:44.962Z,79.78
2022-11-18T07:25:11.070Z,80.06
2022-11-18T07:27:37.192Z,80.01
2022-11-18T07:30:03.286Z,80.16
2022-11-18T07:32:29.407Z,80.05
2022-11-18T07:34:55.533Z,79.93
2022-11-18T07:37:21.912Z,79.84
2022-11-18T07:39:48.054Z,79.95
2022-11-18T07:42:14.166Z,80.00
2022-11-18T07:44:40.253Z,79.88
2022-11-18T07:47:06.354Z,80.12
2022-11-18T07:49:32.970Z,79.98
2022-11-18T07:51:59.051Z,80.04
2022-11-18T07:54:25.159Z,80.20
2022-11-18T07:56:51.378Z,80.03
2022-11-18T07:59:17.771Z,80.23
2022-11-18T08:01:47.972Z,80.09
2022-11-18T08:04:14.237Z,80.06
2022-11-18T08:06:40.340Z,80.08
2022-11-18T08:09:06.458Z,80.28
2022-11-18T08:11:32.566Z,80.06
2022-11-18T08:13:58.664Z,80.08
2022-11-18T08:16:24.748Z,80.27
2022-11-18T08:18:50.874Z,80.20
2022-11-18T08:21:16.982Z,80.10
2022-11-18T08:23:43.101Z,80.13
2022-11-18T08:26:09.222Z,80.45
2022-11-18T08:28:35.430Z,80.06
2022-11-18T08:31:01.596Z,80.09
2022-11-18T08:33:27.704Z,80.32
2022-11-18T08:35:53.802Z,80.16
2022-11-18T08:38:19.883Z,80.18
2022-11-18T08:40:46.004Z,80.03
2022-11-18T08:43:12.107Z,80.13
2022-11-18T08:45:38.222Z,80.24
2022-11-18T08:48:04.337Z,80.06
2022-11-18T08:50:30.433Z,80.19
2022-11-18T08:52:56.534Z,80.22
2022-11-18T08:55:22.677Z,80.28
2022-11-18T08:57:48.771Z,80.27
2022-11-18T09:00:14.855Z,80.09
2022-11-18T09:02:41.201Z,80.23
2022-11-18T09:05:07.334Z,80.19
2022-11-18T09:07:33.625Z,80.21
2022-11-18T09:09:59.893Z,80.21
2022-11-18T09:12:26.096Z,79.98
2022-11-18T09:17:38.297Z,80.01
2022-11-18T09:20:04.393Z,80.09
2022-11-18T09:22:30.498Z,79.98
2022-11-18T09:24:57.117Z,79.80
2022-11-18T09:27:23.224Z,79.98
2022-11-18T09:29:49.312Z,79.86
2022-11-18T09:32:15.416Z,79.85
2022-11-18T09:34:41.512Z,79.82
2022-11-18T09:37:07.626Z,79.98
2022-11-18T09:39:33.757Z,79.83
2022-11-18T09:41:59.865Z,79.86
2022-11-18T09:44:25.956Z,79.99
2022-11-18T09:46:52.056Z,79.89
2022-11-18T09:49:18.280Z,79.75
2022-11-18T09:51:44.503Z,79.79
2022-11-18T09:54:10.895Z,79.88
2022-11-18T09:56:37.042Z,79.56
2022-11-18T09:59:03.219Z,79.59
2022-11-18T10:01:29.445Z,79.69
2022-11-18T10:03:55.619Z,79.62
2022-11-18T10:06:23.747Z,79.71
2022-11-18T10:08:50.138Z,79.71
2022-11-18T10:11:16.273Z,79.64
2022-11-18T10:13:42.408Z,79.55
2022-11-18T10:16:08.571Z,79.60
2022-11-18T10:21:20.853Z,79.84
2022-11-18T10:23:46.991Z,79.85
2022-11-18T10:26:13.179Z,79.82
2022-11-18T10:28:39.803Z,79.86
2022-11-18T10:31:05.931Z,79.83
2022-11-18T10:33:32.089Z,79.89
2022-11-18T10:36:01.060Z,79.92
2022-11-18T10:38:27.240Z,79.82
2022-11-18T10:40:53.430Z,79.83
2022-11-18T10:43:19.556Z,79.81
2022-11-18T10:45:45.688Z,79.57
2022-11-18T10:48:11.795Z,79.69
2022-11-18T10:50:37.911Z,79.77
2022-11-18T10:53:04.028Z,79.77
2022-11-18T10:55:30.212Z,79.74
2022-11-18T10:57:56.399Z,79.78
2022-11-18T11:00:22.525Z,79.72
2022-11-18T11:02:49.886Z,79.77
2022-11-18T11:05:16.012Z,79.68
2022-11-18T11:07:42.230Z,79.66
2022-11-18T11:10:08.414Z,79.70
2022-11-18T11:12:34.573Z,79.74
2022-11-18T11:15:00.687Z,79.84
2022-11-18T11:17:26.863Z,79.78
2022-11-18T11:19:53.123Z,79.66
2022-11-18T11:22:19.273Z,79.65
2022-11-18T11:24:45.403Z,79.73
2022-11-18T11:29:57.632Z,79.84
2022-11-18T11:32:23.789Z,79.76
2022-11-18T11:34:49.901Z,79.72
2022-11-18T11:37:16.005Z,79.70
2022-11-18T11:39:42.132Z,79.69
2022-11-18T11:42:08.296Z,79.60
2022-11-18T11:44:34.413Z,79.60
2022-11-18T11:47:00.561Z,79.56
2022-11-18T11:49:26.685Z,79.58
2022-11-18T11:51:52.782Z,79.39
2022-11-18T11:54:18.909Z,79.39
2022-11-18T11:56:45.053Z,79.37
2022-11-18T11:59:11.216Z,79.30
2022-11-18T12:01:37.672Z,79.13
2022-11-18T12:04:03.803Z,79.07
2022-11-18T12:06:29.931Z,78.80
2022-11-18T12:08:56.121Z,78.75
2022-11-18T12:11:22.254Z,78.60
2022-11-18T12:13:48.390Z,78.58
2022-11-18T12:16:22.070Z,78.57
2022-11-18T12:18:48.172Z,78.37
2022-11-18T12:21:14.291Z,78.09
2022-11-18T12:23:40.394Z,77.75
2022-11-18T12:26:06.516Z,77.27
2022-11-18T12:28:32.855Z,76.79
2022-11-18T12:30:59.018Z,76.19
2022-11-18T12:33:25.149Z,75.80
2022-11-18T12:35:51.275Z,75.45
2022-11-18T12:38:17.413Z,74.94
2022-11-18T12:40:48.895Z,74.83
2022-11-18T12:43:18.252Z,74.52
2022-11-18T12:45:44.350Z,74.00
2022-11-18T12:48:10.445Z,73.68
2022-11-18T12:50:36.561Z,73.49
2022-11-18T12:53:02.653Z,73.27
2022-11-18T12:55:28.780Z,73.15
2022-11-18T12:57:54.897Z,73.06
2022-11-18T13:00:20.998Z,73.07
2022-11-18T13:02:47.097Z,72.93
2022-11-18T13:05:13.225Z,72.86
2022-11-18T13:07:39.385Z,72.72
2022-11-18T13:10:05.605Z,72.59
2022-11-18T13:12:31.710Z,72.41
2022-11-18T13:14:57.800Z,72.63
2022-11-18T13:17:23.890Z,72.41
2022-11-18T13:19:50.070Z,72.40
2022-11-18T13:22:16.201Z,72.33
2022-11-18T13:24:42.285Z,72.46
2022-11-18T13:27:08.391Z,72.20
2022-11-18T13:29:34.493Z,72.36
2022-11-18T13:32:00.592Z,72.22
2022-11-18T13:34:26.717Z,72.31
2022-11-18T13:36:52.826Z,72.37
2022-11-18T13:39:19.057Z,72.39
2022-11-18T13:41:45.423Z,72.25
2022-11-18T13:44:11.509Z,72.23
2022-11-18T13:46:37.592Z,72.20
2022-11-18T13:49:03.704Z,72.20
2022-11-18T13:51:29.800Z,72.13
2022-11-18T13:53:55.894Z,72.30
2022-11-18T13:56:22.049Z,72.38
2022-11-18T14:01:34.311Z,72.48
2022-11-18T14:04:00.426Z,72.50
2022-11-18T14:06:26.606Z,72.74
2022-11-18T14:08:53.209Z,72.77
2022-11-18T14:11:19.303Z,72.78
2022-11-18T14:13:45.395Z,72.92
2022-11-18T14:16:11.544Z,72.87
2022-11-18T14:18:37.645Z,72.98
2022-11-18T14:21:03.740Z,72.86
2022-11-18T14:23:29.853Z,72.92
2022-11-18T14:25:55.936Z,72.84
2022-11-18T14:28:22.073Z,73.04
2022-11-18T14:30:48.184Z,73.08
2022-11-18T14:33:14.268Z,73.11
2022-11-18T14:35:40.395Z,72.97
2022-11-18T14:40:53.112Z,73.33
2022-11-18T14:43:19.210Z,73.50
2022-11-18T14:45:45.296Z,73.50
2022-11-18T14:48:11.385Z,73.56
2022-11-18T14:50:37.572Z,73.67
2022-11-18T14:53:04.148Z,73.69
2022-11-18T14:55:30.302Z,73.73
2022-11-18T14:57:56.425Z,73.94
2022-11-18T15:00:22.520Z,74.09
2022-11-18T15:02:48.627Z,74.01
2022-11-18T15:05:14.773Z,74.12
2022-11-18T15:07:40.884Z,74.27
2022-11-18T15:10:07.113Z,74.20
2022-11-18T15:12:33.351Z,74.26
2022-11-18T15:14:59.446Z,74.29
2022-11-18T15:17:25.544Z,74.44
2022-11-18T15:19:52.137Z,74.41
2022-11-18T15:22:18.238Z,74.41
2022-11-18T15:24:44.333Z,74.62
2022-11-18T15:27:10.454Z,74.52
2022-11-18T15:29:36.550Z,74.52
2022-11-18T15:32:02.652Z,74.68
2022-11-18T15:34:29.038Z,74.62
2022-11-18T15:36:55.164Z,74.62
2022-11-18T15:39:21.253Z,74.59
2022-11-18T15:41:47.432Z,74.68
2022-11-18T15:44:13.538Z,74.81
2022-11-18T15:46:39.653Z,74.80
2022-11-18T15:49:09.134Z,74.80
2022-11-18T15:51:35.742Z,74.71
2022-11-18T15:54:01.854Z,74.81
2022-11-18T15:56:27.976Z,74.73
2022-11-18T15:58:56.648Z,74.77
2022-11-18T16:01:23.135Z,74.64
2022-11-18T16:03:49.260Z,74.88
2022-11-18T16:06:15.360Z,74.90
2022-11-18T16:08:41.458Z,75.02
2022-11-18T16:11:07.611Z,75.02
2022-11-18T16:13:33.696Z,74.88
2022-11-18T16:15:59.793Z,74.82
2022-11-18T16:18:25.904Z,74.98
2022-11-18T16:20:51.999Z,75.03
2022-11-18T16:23:18.092Z,75.25
2022-11-18T16:25:44.197Z,75.09
2022-11-18T16:28:10.299Z,75.36
2022-11-18T16:30:36.397Z,75.13
2022-11-18T16:33:02.510Z,75.34
2022-11-18T16:35:28.608Z,75.33
2022-11-18T16:37:54.694Z,75.45
2022-11-18T16:40:20.803Z,75.34
2022-11-18T16:42:46.903Z,75.82
2022-11-18T16:45:12.986Z,75.53
2022-11-18T16:47:39.098Z,75.68
2022-11-18T16:50:05.220Z,75.82
2022-11-18T16:52:31.348Z,76.01
2022-11-18T16:54:57.468Z,76.02
2022-11-18T16:57:23.561Z,76.01
2022-11-18T16:59:49.658Z,76.02
2022-11-18T17:02:15.847Z,76.06
2022-11-18T17:04:44.308Z,75.91
2022-11-18T17:07:10.450Z,76.25
2022-11-18T17:09:36.587Z,76.18
2022-11-18T17:12:02.703Z,76.05
2022-11-18T17:14:28.812Z,76.12
2022-11-18T17:16:54.995Z,76.21
2022-11-18T17:19:21.968Z,76.31
2022-11-18T17:21:48.275Z,76.61
2022-11-18T17:24:14.450Z,76.43
2022-11-18T17:26:40.554Z,76.45
2022-11-18T17:29:06.654Z,76.65
2022-11-18T17:31:32.779Z,76.90
2022-11-18T17:33:58.881Z,76.80
2022-11-18T17:36:24.992Z,76.72
2022-11-18T17:38:51.108Z,77.00
2022-11-18T17:41:17.199Z,77.03
2022-11-18T17:43:43.295Z,76.93
2022-11-18T17:46:09.972Z,77.04
2022-11-18T17:48:36.086Z,77.04
2022-11-18T17:51:02.253Z,77.16
2022-11-18T17:53:31.663Z,77.31
2022-11-18T17:56:03.498Z,77.18
2022-11-18T17:58:30.197Z,77.12
2022-11-18T18:00:56.298Z,77.39
2022-11-18T18:03:22.486Z,77.33
2022-11-18T18:05:48.631Z,77.67
2022-11-18T18:08:14.762Z,77.60
2022-11-18T18:10:40.860Z,77.57
2022-11-18T18:13:07.002Z,77.34
2022-11-18T18:15:33.160Z,77.67
2022-11-18T18:17:59.245Z,77.68
2022-11-18T18:20:25.827Z,78.16
2022-11-18T18:22:51.930Z,78.46
2022-11-18T18:25:18.031Z,79.09
2022-11-18T18:27:44.149Z,79.04
2022-11-18T18:30:10.253Z,79.84
2022-11-18T18:32:36.335Z,79.67
2022-11-18T18:35:02.472Z,80.26
2022-11-18T18:37:28.568Z,80.31
2022-11-18T18:39:54.661Z,80.75
2022-11-18T18:42:20.773Z,80.93
2022-11-18T18:44:46.883Z,81.22
2022-11-18T18:47:12.978Z,81.48
2022-11-18T18:49:39.132Z,81.49
2022-11-18T18:52:05.225Z,81.49
2022-11-18T18:54:31.310Z,81.51
2022-11-18T18:56:57.428Z,81.52
2022-11-18T18:59:23.515Z,81.28
2022-11-18T19:01:49.725Z,81.23
2022-11-18T19:04:16.077Z,81.33
2022-11-18T19:06:56.674Z,81.16
2022-11-18T19:09:24.804Z,81.08
2022-11-18T19:11:51.048Z,81.07
2022-11-18T19:14:17.603Z,80.80
2022-11-18T19:16:43.915Z,81.18
2022-11-18T19:19:10.007Z,81.10
2022-11-18T19:21:36.112Z,80.85
2022-11-18T19:24:02.250Z,80.75
2022-11-18T19:26:28.346Z,80.71
2022-11-18T19:28:54.466Z,80.94
2022-11-18T19:31:20.583Z,80.73
2022-11-18T19:33:46.785Z,80.66
2022-11-18T19:36:12.904Z,80.54
2022-11-18T19:38:39.013Z,80.85
2022-11-18T19:41:05.121Z,80.63
2022-11-18T19:43:31.224Z,80.47
2022-11-18T19:45:57.333Z,80.50
2022-11-18T19:48:23.424Z,80.54
2022-11-18T19:50:49.676Z,80.52
2022-11-18T19:53:15.836Z,80.39
2022-11-18T19:55:41.928Z,80.37
2022-11-18T19:58:08.019Z,79.95
2022-11-18T20:00:34.118Z,80.01
2022-11-18T20:03:00.216Z,80.17
2022-11-18T20:05:26.301Z,80.28
2022-11-18T20:07:52.521Z,80.04
2022-11-18T20:10:18.649Z,79.79
2022-11-18T20:12:44.731Z,79.58
2022-11-18T20:15:10.840Z,80.01
2022-11-18T20:17:36.927Z,79.75
2022-11-18T20:20:03.031Z,79.50
2022-11-18T20:22:29.161Z,79.56
2022-11-18T20:24:55.275Z,79.51
2022-11-18T20:27:21.376Z,79.74
2022-11-18T20:29:47.815Z,79.76
2022-11-18T20:32:13.919Z,79.78
2022-11-18T20:34:40.008Z,79.57
2022-11-18T20:37:06.119Z,79.30
2022-11-18T20:39:32.218Z,79.36
2022-11-18T20:41:58.300Z,79.24
2022-11-18T20:44:24.425Z,79.33
2022-11-18T20:46:50.534Z,79.14
2022-11-18T20:49:17.008Z,79.27
2022-11-18T20:51:43.304Z,79.07
2022-11-18T20:54:09.388Z,79.50
2022-11-18T20:56:35.468Z,79.35
2022-11-18T20:59:01.586Z,79.24
2022-11-18T21:01:27.962Z,79.29
2022-11-18T21:03:54.156Z,79.06
2022-11-18T21:06:20.284Z,79.51
2022-11-18T21:08:46.371Z,79.46
2022-11-18T21:11:12.461Z,79.34
2022-11-18T21:13:38.577Z,79.67
2022-11-18T21:16:04.663Z,79.47
2022-11-18T21:18:30.763Z,79.38
2022-11-18T21:20:56.865Z,79.45
2022-11-18T21:23:22.969Z,79.82
2022-11-18T21:25:49.060Z,79.41
2022-11-18T21:28:15.163Z,79.40
2022-11-18T21:30:41.253Z,79.31
2022-11-18T21:33:07.339Z,79.56
2022-11-18T21:35:33.453Z,79.46
2022-11-18T21:37:59.542Z,79.67
2022-11-18T21:40:25.632Z,79.73
2022-11-18T21:42:51.731Z,79.91
2022-11-18T21:45:17.825Z,79.54
2022-11-18T21:47:43.933Z,79.54
2022-11-18T21:50:10.051Z,79.92
2022-11-18T21:52:36.183Z,80.09
2022-11-18T21:55:02.273Z,79.74
2022-11-18T21:57:28.483Z,80.04
2022-11-18T21:59:54.575Z,79.76
2022-11-18T22:02:20.656Z,79.85
2022-11-18T22:04:46.770Z,79.77
2022-11-18T22:07:13.027Z,80.15
2022-11-18T22:09:39.181Z,79.70
2022-11-18T22:12:05.301Z,79.97
2022-11-18T22:14:31.396Z,79.65
2022-11-18T22:16:57.483Z,79.84
2022-11-18T22:19:23.870Z,79.79
2022-11-18T22:21:50.160Z,79.67
2022-11-18T22:24:16.254Z,79.93
2022-11-18T22:26:42.426Z,79.92
2022-11-18T22:29:08.527Z,79.79
2022-11-18T22:31:34.620Z,79.69
2022-11-18T22:34:01.212Z,79.66
2022-11-18T22:36:27.318Z,79.78
2022-11-18T22:38:53.430Z,79.78
2022-11-18T22:41:19.532Z,79.76
2022-11-18T22:43:45.627Z,80.22
2022-11-18T22:46:11.730Z,79.82
2022-11-18T22:48:37.836Z,79.72
2022-11-18T22:51:03.934Z,79.98
2022-11-18T22:53:30.011Z,79.76
2022-11-18T22:55:56.125Z,79.76
2022-11-18T22:58:22.233Z,79.91
2022-11-18T23:00:48.323Z,79.85
2022-11-18T23:03:14.443Z,79.96
2022-11-18T23:05:40.550Z,80.13
2022-11-18T23:08:06.678Z,79.95
2022-11-18T23:10:32.867Z,80.31
2022-11-18T23:12:58.952Z,79.73
2022-11-18T23:15:25.053Z,80.32
2022-11-18T23:17:51.159Z,80.08
2022-11-18T23:20:17.252Z,80.56
2022-11-18T23:22:43.339Z,80.55
2022-11-18T23:25:09.473Z,80.63
2022-11-18T23:27:35.564Z,80.47
2022-11-18T23:30:01.652Z,80.42
2022-11-18T23:32:27.760Z,80.57
2022-11-18T23:34:53.872Z,80.58
2022-11-18T23:37:19.958Z,80.72
2022-11-18T23:39:46.552Z,80.70
2022-11-18T23:42:12.636Z,80.74
2022-11-18T23:44:38.733Z,80.44
2022-11-18T23:47:04.856Z,80.24
2022-11-18T23:49:30.939Z,80.73
2022-11-18T23:51:57.057Z,80.59
2022-11-18T23:54:23.184Z,80.38
2022-11-18T23:56:49.268Z,80.52
2022-11-18T23:59:15.365Z,80.29
